createdAt,value
2023-02-01T00:03:11.061Z,99194.69
2023-02-01T00:07:14.531Z,99198.06
2023-02-01T00:11:16.029Z,99204.28
2023-02-01T00:15:17.534Z,99207.19
2023-02-01T00:19:19.022Z,99194.72
2023-02-01T00:23:21.816Z,99198.47
2023-02-01T00:27:23.241Z,99204.09
2023-02-01T00:31:24.947Z,99195.31
2023-02-01T00:35:27.132Z,99201.78
2023-02-01T00:39:29.931Z,99214.72
2023-02-01T00:43:32.031Z,99207.19
2023-02-01T00:47:33.509Z,99195.53
2023-02-01T00:51:34.935Z,99189.69
2023-02-01T00:55:38.072Z,99207.19
2023-02-01T00:59:39.526Z,99204.28
2023-02-01T01:03:43.655Z,99202.66
2023-02-01T01:07:45.150Z,99203.47
2023-02-01T01:11:48.001Z,99206.38
2023-02-01T01:15:49.609Z,99194.69
2023-02-01T01:19:51.065Z,99201.59
2023-02-01T01:23:52.654Z,99197.63
2023-02-01T01:27:55.476Z,99190.56
2023-02-01T01:31:56.967Z,99205.94
2023-02-01T01:35:58.438Z,99187.19
2023-02-01T01:39:59.876Z,99189.69
2023-02-01T01:44:05.542Z,99198.25
2023-02-01T01:48:12.644Z,99188.47
2023-02-01T01:52:14.672Z,99196.16
2023-02-01T01:56:16.674Z,99192.63
2023-02-01T02:00:21.913Z,99186.97
2023-02-01T02:04:24.283Z,99184.28
2023-02-01T02:08:27.927Z,99198.47
2023-02-01T02:12:29.586Z,99185.53
2023-02-01T02:16:43.945Z,99178.25
2023-02-01T02:21:11.473Z,99172.81
2023-02-01T02:25:26.475Z,99158.44
2023-02-01T02:30:01.559Z,99162.59
2023-02-01T02:34:11.803Z,99158.06
2023-02-01T02:38:18.974Z,99154.69
2023-02-01T02:42:28.845Z,99136.78
2023-02-01T02:46:36.993Z,99148.88
2023-02-01T02:50:46.607Z,99138.88
2023-02-01T02:54:50.273Z,99153.88
2023-02-01T02:58:53.709Z,99146.41
2023-02-01T03:02:56.018Z,99147.63
2023-02-01T03:06:58.843Z,99160.94
2023-02-01T03:11:03.838Z,99140.53
2023-02-01T03:15:11.755Z,99176.78
2023-02-01T03:19:19.055Z,99162.59
2023-02-01T03:23:27.232Z,99161.38
2023-02-01T03:27:33.806Z,99163.03
2023-02-01T03:31:35.352Z,99158.84
2023-02-01T03:35:41.582Z,99149.72
2023-02-01T03:39:49.257Z,99138.44
2023-02-01T03:43:56.288Z,99146.34
2023-02-01T03:48:01.220Z,99138.44
2023-02-01T03:52:03.532Z,99140.94
2023-02-01T03:56:07.620Z,99135.50
2023-02-01T04:00:16.272Z,99137.81
2023-02-01T04:04:17.979Z,99108.63
2023-02-01T04:08:20.696Z,99120.09
2023-02-01T04:12:23.567Z,99123.41
2023-02-01T04:16:25.246Z,99121.13
2023-02-01T04:20:26.855Z,99111.34
2023-02-01T04:24:28.290Z,99103.22
2023-02-01T04:28:31.788Z,99105.94
2023-02-01T04:32:33.263Z,99100.50
2023-02-01T04:36:34.724Z,99099.69
2023-02-01T04:40:36.162Z,99107.22
2023-02-01T04:44:38.975Z,99098.25
2023-02-01T04:48:40.631Z,99091.78
2023-02-01T04:52:42.082Z,99087.59
2023-02-01T04:56:43.570Z,99078.84
2023-02-01T05:00:46.417Z,99080.53
2023-02-01T05:04:47.995Z,99074.28
2023-02-01T05:08:50.013Z,99070.53
2023-02-01T05:12:51.493Z,99066.59
2023-02-01T05:16:54.270Z,99054.69
2023-02-01T05:20:55.895Z,99059.50
2023-02-01T05:24:57.352Z,99049.28
2023-02-01T05:28:58.916Z,99050.34
2023-02-01T05:33:01.880Z,99042.63
2023-02-01T05:37:03.432Z,99032.19
2023-02-01T05:41:05.304Z,99043.41
2023-02-01T05:45:08.206Z,99041.28
2023-02-01T05:49:11.059Z,99049.63
2023-02-01T05:53:12.960Z,99043.84
2023-02-01T05:57:14.411Z,99038.81
2023-02-01T06:01:15.847Z,99038.66
2023-02-01T06:05:18.640Z,99038.44
2023-02-01T06:09:20.142Z,99025.53
2023-02-01T06:13:21.631Z,99029.72
2023-02-01T06:17:23.071Z,99018.88
2023-02-01T06:21:26.007Z,99018.41
2023-02-01T06:25:27.473Z,99026.94
2023-02-01T06:29:29.016Z,99020.09
2023-02-01T06:33:30.432Z,99028.41
2023-02-01T06:37:33.233Z,99028.38
2023-02-01T06:41:34.714Z,99035.88
2023-02-01T06:45:36.183Z,99040.69
2023-02-01T06:49:37.655Z,99017.97
2023-02-01T06:53:40.437Z,99021.72
2023-02-01T06:57:41.881Z,99008.38
2023-02-01T07:01:43.461Z,99017.97
2023-02-01T07:05:44.960Z,99014.66
2023-02-01T07:09:47.739Z,99005.09
2023-02-01T07:13:49.724Z,99009.28
2023-02-01T07:17:51.193Z,98996.22
2023-02-01T07:21:52.621Z,99005.66
2023-02-01T07:25:56.053Z,99008.19
2023-02-01T07:29:57.591Z,99009.03
2023-02-01T07:33:59.098Z,98998.63
2023-02-01T07:38:00.548Z,98994.06
2023-02-01T07:42:03.544Z,98997.38
2023-02-01T07:46:06.192Z,98994.88
2023-02-01T07:50:08.624Z,98976.97
2023-02-01T07:54:10.358Z,98971.97
2023-02-01T07:58:13.131Z,98980.06
2023-02-01T08:02:14.611Z,98981.50
2023-02-01T08:06:16.358Z,98970.28
2023-02-01T08:10:18.598Z,98967.81
2023-02-01T08:14:21.401Z,98945.34
2023-02-01T08:18:22.846Z,98967.41
2023-02-01T08:22:24.311Z,98967.41
2023-02-01T08:26:27.015Z,98956.63
2023-02-01T08:30:29.834Z,98949.97
2023-02-01T08:34:31.336Z,98946.63
2023-02-01T08:38:32.858Z,98934.53
2023-02-01T08:42:34.280Z,98938.22
2023-02-01T08:46:37.073Z,98941.47
2023-02-01T08:50:38.581Z,98944.72
2023-02-01T08:54:40.030Z,98925.88
2023-02-01T08:58:41.760Z,98929.81
2023-02-01T09:02:44.948Z,98922.47
2023-02-01T09:06:46.389Z,98922.03
2023-02-01T09:10:47.828Z,98929.09
2023-02-01T09:14:49.342Z,98930.75
2023-02-01T09:18:56.724Z,98931.19
2023-02-01T09:23:09.475Z,98932.03
2023-02-01T09:27:11.126Z,98933.72
2023-02-01T09:31:12.731Z,98922.53
2023-02-01T09:35:15.692Z,98926.56
2023-02-01T09:39:17.219Z,98915.56
2023-02-01T09:43:30.318Z,98938.28
2023-02-01T09:47:32.201Z,98947.00
2023-02-01T09:51:39.391Z,98957.91
2023-02-01T09:55:43.797Z,98961.22
2023-02-01T09:59:49.931Z,98979.50
2023-02-01T10:03:57.767Z,98972.00
2023-02-01T10:08:05.884Z,98978.88
2023-02-01T10:12:42.425Z,98989.03
2023-02-01T10:16:51.641Z,98992.19
2023-02-01T10:21:03.229Z,98993.00
2023-02-01T10:25:15.079Z,99006.31
2023-02-01T10:29:20.073Z,98998.63
2023-02-01T10:33:25.706Z,98994.06
2023-02-01T10:37:32.330Z,98997.38
2023-02-01T10:41:37.464Z,98990.34
2023-02-01T10:45:39.162Z,98980.97
2023-02-01T10:49:50.726Z,98994.91
2023-02-01T10:53:56.435Z,98985.34
2023-02-01T10:58:02.109Z,99012.34
2023-02-01T11:02:20.079Z,99020.66
2023-02-01T11:06:28.982Z,99024.38
2023-02-01T11:10:36.783Z,99016.66
2023-02-01T11:14:41.092Z,99015.16
2023-02-01T11:18:42.559Z,99013.06
2023-02-01T11:22:48.394Z,99005.59
2023-02-01T11:26:50.399Z,99011.75
2023-02-01T11:30:55.833Z,99023.41
2023-02-01T11:35:02.256Z,98993.38
2023-02-01T11:39:21.105Z,98998.38
2023-02-01T11:43:25.725Z,98988.34
2023-02-01T11:47:30.246Z,98993.38
2023-02-01T11:51:45.984Z,98981.22
2023-02-01T11:56:03.436Z,98975.63
2023-02-01T12:00:24.481Z,98962.31
2023-02-01T12:04:53.812Z,98962.66
2023-02-01T12:09:08.623Z,98965.09
2023-02-01T12:13:21.198Z,98961.69
2023-02-01T12:17:54.023Z,98959.94
2023-02-01T12:22:08.979Z,98958.69
2023-02-01T12:26:39.419Z,98955.56
2023-02-01T12:31:16.333Z,98951.13
2023-02-01T12:35:39.708Z,98945.19
2023-02-01T12:39:53.821Z,98956.16
2023-02-01T12:43:59.104Z,98942.38
2023-02-01T12:48:07.047Z,98947.50
2023-02-01T12:52:14.483Z,98939.94
2023-02-01T12:56:23.515Z,98932.00
2023-02-01T13:00:32.011Z,98940.66
2023-02-01T13:04:39.075Z,98935.63
2023-02-01T13:08:46.676Z,98945.13
2023-02-01T13:12:55.483Z,98916.66
2023-02-01T13:17:02.742Z,98925.78
2023-02-01T13:21:07.743Z,98928.63
2023-02-01T13:25:14.065Z,98910.69
2023-02-01T13:29:17.036Z,98920.66
2023-02-01T13:33:54.405Z,98904.38
2023-02-01T13:38:16.169Z,98900.59
2023-02-01T13:42:22.014Z,98910.25
2023-02-01T13:46:25.275Z,98902.31
2023-02-01T13:50:31.495Z,98886.44
2023-02-01T13:54:34.007Z,98884.78
2023-02-01T13:58:38.156Z,98894.88
2023-02-01T14:03:10.288Z,98888.22
2023-02-01T14:07:19.784Z,98885.66
2023-02-01T14:11:37.493Z,98888.38
2023-02-01T14:15:39.176Z,98879.78
2023-02-01T14:19:42.012Z,98875.19
2023-02-01T14:23:45.751Z,98867.66
2023-02-01T14:27:47.401Z,98857.16
2023-02-01T14:32:01.242Z,98873.44
2023-02-01T14:36:08.539Z,98864.72
2023-02-01T14:40:20.542Z,98875.28
2023-02-01T14:44:27.089Z,98863.13
2023-02-01T14:48:44.834Z,98865.63
2023-02-01T14:52:51.594Z,98870.28
2023-02-01T14:56:54.977Z,98875.13
2023-02-01T15:00:58.193Z,98855.66
2023-02-01T15:04:59.645Z,98859.91
2023-02-01T15:09:08.695Z,98850.75
2023-02-01T15:13:20.227Z,98848.72
2023-02-01T15:17:24.249Z,98844.81
2023-02-01T15:21:28.554Z,98830.31
2023-02-01T15:25:36.488Z,98820.06
2023-02-01T15:29:38.013Z,98801.78
2023-02-01T15:33:39.496Z,98803.19
2023-02-01T15:37:40.976Z,98780.13
2023-02-01T15:41:46.292Z,98786.41
2023-02-01T15:45:50.409Z,98790.56
2023-02-01T15:49:53.810Z,98775.47
2023-02-01T15:54:00.947Z,98766.75
2023-02-01T15:58:07.608Z,98765.53
2023-02-01T16:02:26.246Z,98761.31
2023-02-01T16:06:29.606Z,98748.06
2023-02-01T16:10:32.731Z,98733.16
2023-02-01T16:14:35.583Z,98738.25
2023-02-01T16:18:37.005Z,98729.06
2023-02-01T16:22:38.632Z,98723.50
2023-02-01T16:26:40.218Z,98729.59
2023-02-01T16:30:43.183Z,98749.50
2023-02-01T16:34:45.305Z,98776.34
2023-02-01T16:38:47.966Z,98787.13
2023-02-01T16:42:51.687Z,98780.38
2023-02-01T16:46:54.772Z,98793.03
2023-02-01T16:50:58.768Z,98838.88
2023-02-01T16:55:00.328Z,98861.19
2023-02-01T16:59:02.191Z,98904.66
2023-02-01T17:03:05.657Z,98853.38
2023-02-01T17:07:07.897Z,98824.72
2023-02-01T17:11:11.386Z,98746.31
2023-02-01T17:15:13.005Z,98783.25
2023-02-01T17:19:17.774Z,98822.72
2023-02-01T17:23:20.366Z,98825.84
2023-02-01T17:27:22.080Z,98838.09
2023-02-01T17:31:24.462Z,98855.09
2023-02-01T17:35:28.746Z,98859.63
2023-02-01T17:39:30.361Z,98871.59
2023-02-01T17:43:31.912Z,98877.03
2023-02-01T17:47:33.355Z,98891.09
2023-02-01T17:51:36.339Z,98892.34
2023-02-01T17:55:42.622Z,98877.81
2023-02-01T17:59:43.955Z,98889.47
2023-02-01T18:03:46.008Z,98910.66
2023-02-01T18:07:49.323Z,98931.84
2023-02-01T18:11:53.793Z,98923.16
2023-02-01T18:15:55.300Z,98920.25
2023-02-01T18:19:56.745Z,98920.69
2023-02-01T18:24:00.423Z,98916.97
2023-02-01T18:28:01.884Z,98929.00
2023-02-01T18:32:03.784Z,98924.66
2023-02-01T18:36:05.898Z,98933.81
2023-02-01T18:40:13.218Z,98931.75
2023-02-01T18:44:15.920Z,98930.31
2023-02-01T18:48:18.529Z,98929.06
2023-02-01T18:52:20.069Z,98918.69
2023-02-01T18:56:22.876Z,98909.53
2023-02-01T19:00:24.493Z,98914.72
2023-02-01T19:04:27.216Z,98919.91
2023-02-01T19:08:28.890Z,98918.25
2023-02-01T19:12:31.983Z,98927.81
2023-02-01T19:16:33.426Z,98926.16
2023-02-01T19:20:36.998Z,98922.00
2023-02-01T19:24:39.562Z,98938.19
2023-02-01T19:28:43.203Z,98941.50
2023-02-01T19:32:45.092Z,98951.94
2023-02-01T19:36:46.607Z,98947.38
2023-02-01T19:40:48.917Z,98953.16
2023-02-01T19:44:51.678Z,98948.97
2023-02-01T19:48:53.134Z,98954.81
2023-02-01T19:52:54.710Z,98944.06
2023-02-01T19:56:56.343Z,98935.97
2023-02-01T20:00:58.577Z,98943.44
2023-02-01T20:05:00.017Z,98940.97
2023-02-01T20:09:01.453Z,98944.50
2023-02-01T20:13:02.954Z,98967.81
2023-02-01T20:17:06.658Z,98966.09
2023-02-01T20:21:08.196Z,98971.50
2023-02-01T20:25:09.647Z,98984.75
2023-02-01T20:29:12.418Z,98993.50
2023-02-01T20:33:15.211Z,98985.22
2023-02-01T20:37:16.757Z,98991.00
2023-02-01T20:41:18.438Z,98997.63
2023-02-01T20:45:20.319Z,98986.34
2023-02-01T20:49:23.139Z,98992.16
2023-02-01T20:53:26.857Z,98987.38
2023-02-01T20:57:28.729Z,98989.28
2023-02-01T21:01:30.878Z,99000.16
2023-02-01T21:05:33.730Z,98995.41
2023-02-01T21:09:35.181Z,98995.19
2023-02-01T21:13:39.024Z,99001.41
2023-02-01T21:17:40.458Z,99002.06
2023-02-01T21:21:43.311Z,98997.72
2023-02-01T21:25:45.285Z,99007.09
2023-02-01T21:29:46.774Z,99001.03
2023-02-01T21:33:49.085Z,99006.84
2023-02-01T21:37:52.110Z,99017.47
2023-02-01T21:41:53.550Z,99014.34
2023-02-01T21:45:54.998Z,99017.69
2023-02-01T21:49:56.471Z,99009.38
2023-02-01T21:54:00.003Z,99017.22
2023-02-01T21:58:01.720Z,99010.63
2023-02-01T22:02:03.645Z,99023.06
2023-02-01T22:06:05.719Z,99017.25
2023-02-01T22:10:10.921Z,99028.06
2023-02-01T22:14:12.856Z,99012.66
2023-02-01T22:18:14.276Z,99014.31
2023-02-01T22:22:15.729Z,99017.63
2023-02-01T22:26:18.546Z,99008.28
2023-02-01T22:30:20.862Z,99022.59
2023-02-01T22:34:22.324Z,99017.22
2023-02-01T22:38:23.862Z,99017.22
2023-02-01T22:42:26.655Z,99013.06
2023-02-01T22:46:29.243Z,99008.47
2023-02-01T22:50:31.438Z,99004.34
2023-02-01T22:54:32.901Z,99001.44
2023-02-01T22:58:35.820Z,98998.53
2023-02-01T23:02:38.204Z,98998.75
2023-02-01T23:06:40.258Z,99006.44
2023-02-01T23:10:41.681Z,99013.53
2023-02-01T23:14:44.466Z,98993.59
2023-02-01T23:18:46.057Z,99004.81
2023-02-01T23:22:49.110Z,98990.28
2023-02-01T23:26:50.565Z,99015.84
2023-02-01T23:30:53.744Z,99026.00
2023-02-01T23:34:55.288Z,99028.47
2023-02-01T23:38:56.950Z,99027.66
2023-02-01T23:42:58.416Z,99033.06
2023-02-01T23:47:01.186Z,99033.84
2023-02-01T23:51:02.630Z,99035.69
2023-02-01T23:55:04.574Z,99019.91
2023-02-01T23:59:09.898Z,99012.22
